Homestead, FL

2:40 PM EDT on July 03, 2015 (GMT -0400)
Dade County-Homestead Regional | | Change Station
CLOSE
Current Station
Airport
Location: Homestead AFB,
Elevation: 7 ft
Nearby Weather Stations

Elev 7 ft 25.49 °N, 80.38 °W | Updated 42 minutes ago

Scattered Clouds
Scattered Clouds
90 °F
Feels Like 102 °F
N
13
Wind Variable Wind from East

Today
High -- | Low -- °F
--% Chance of Precip.
Yesterday
High -- | Low -- °F
Precip. -- in
6:34 AM 8:16 PM
Waning Gibbous, 96% visible
Pressure 30.09 in
Visibility 10.0 miles
Clouds Few 13000 ft
Scattered Clouds 16000 ft
Scattered Clouds 18000 ft
Scattered Clouds 20000 ft
Heat Index 102 °F
Dew Point 76 °F
Humidity 64%
Rainfall 0.00 in
Snow Depth Not available.
UV 12 out of 12
Pollen 3.80 out of 12
Air Quality Not available.
Flu Activity Not available.
METAR KHST 031758Z AUTO 08011KT 10SM FEW130 SCT160 SCT180 SCT200 32/25 A3008 RMK AO2 LTG DSNT W SLP189 T03220246 10323 20270 58004 $

More Conditions Fewer Conditions

Pressure 30.09 in
Visibility 10.0 miles
Clouds Few 13000 ft
Scattered Clouds 16000 ft
Scattered Clouds 18000 ft
Scattered Clouds 20000 ft
Heat Index 102 °F
Dew Point 76 °F
Humidity 64%
Rainfall 0.00 in
Snow Depth Not available.
UV 12 out of 12
Pollen 3.80 out of 12
Air Quality Not available.
Flu Activity Not available.
METAR KHST 031758Z AUTO 08011KT 10SM FEW130 SCT160 SCT180 SCT200 32/25 A3008 RMK AO2 LTG DSNT W SLP189 T03220246 10323 20270 58004 $

More Conditions Fewer Conditions

10-Day Weather Forecast

×

Almanac

Astronomy

Jul. 03, 2015 Rise Set
Actual Time
Civil Twilight
Nautical Twilight
Astronomical Twilight
Moon
Length of Visible Light
Length of Day
Tomorrow will be .
, % of the Moon is Illuminated

Today's Extremes

State Highs State Lows

Community

WunderPhotos

Upload Photos

1,834,737 photos uploaded!

WunderBlogs® & News

Nearby

Air Quality

  Air Quality AQ Index Pollutant
Not available.

Snow Depth

Station Depth Elevation

Earthquake Activity

City Distance Mag. Time & Date
Minimum magnitude displayed is 2.5.

Coastal Water Temperatures

Place Temperature

Stations

Nearby Weather Stations

Station Location Temp. Windchill Dew Point Humidity Wind Precip. Elev Updated Type